Terminal Aerodrome Forecast
Issued by NWS Duluth, MN

Home | Current Version | Previous Version | Text Only | Print | Product List | Glossary On
Versions: 1 2 3 4 5 6 7 8 9 10 11 12 13 14 15 16 17 18 19 20 21
204
FTUS43 KDLH 200059 AAA
TAFDLH
TAF AMD
KDLH 200059Z 2001/2024 10015G25KT P6SM BKN200
     FM200300 12015G24KT P6SM SCT110 BKN200 WS020/18040KT
     FM201100 11015G24KT 6SM BR SCT010 BKN150 WS020/18040KT
      TEMPO 2012/2016 5SM -DZ BR BKN010 OVC150
     FM201600 12014G23KT 2SM -RA BR BKN007 OVC015
      TEMPO 2018/2022 3/4SM -RA BR OVC005=

USA.gov is the U.S. government's official web portal to all federal, state and local government web resources and services.